Time;durP1;ratioP1;P1;durP2;ratioP2;P2;SDS_P1;SDS_P2;PMS_P1;PMS_P2;Temp;Humidity;BMP_temperature;BMP_pressure;BME280_temperature;BME280_humidity;BME280_pressure;Samples;Min_cycle;Max_cycle;Signal;HPM_P1;HPM_P2
2024/02/11 16:16:37;;;;;;;7.60;2.65;;;10.80;99.90;;;;;;2085468;28;20174;-69
2024/02/11 16:17:43;;;;;;;4.75;2.13;;;10.60;99.90;;;;;;2082752;28;20033;-69
2024/02/11 16:18:43;;;;;;;5.32;2.88;;;10.60;99.90;;;;;;2081528;28;20030;-69
2024/02/11 16:19:44;;;;;;;5.20;2.28;;;10.50;99.90;;;;;;2083071;28;20064;-69
2024/02/11 16:20:44;;;;;;;5.03;2.17;;;10.60;99.90;;;;;;2084215;28;20033;-68
2024/02/11 16:21:45;;;;;;;3.42;2.08;;;10.60;99.90;;;;;;2085412;28;20029;-68
2024/02/11 16:22:46;;;;;;;8.15;2.20;;;10.60;99.90;;;;;;2082323;28;20451;-69
2024/02/11 16:23:47;;;;;;;6.13;1.92;;;10.60;99.90;;;;;;2083011;28;20025;-68
2024/02/11 16:24:47;;;;;;;6.72;2.17;;;10.70;99.90;;;;;;2083212;28;20030;-69
2024/02/11 16:25:48;;;;;;;8.23;2.10;;;10.70;99.90;;;;;;2083548;28;20040;-69
2024/02/11 16:26:49;;;;;;;7.50;2.10;;;10.80;99.90;;;;;;2084215;28;20025;-69
2024/02/11 16:27:50;;;;;;;5.03;2.47;;;10.80;99.90;;;;;;2082993;28;20021;-68
2024/02/11 16:28:53;;;;;;;4.88;2.10;;;10.80;99.90;;;;;;2084478;28;21011;-69
2024/02/11 16:29:54;;;;;;;6.65;2.33;;;10.90;99.90;;;;;;2075331;28;20026;-69
2024/02/11 16:30:57;;;;;;;5.13;2.28;;;11.00;99.90;;;;;;2081864;28;20390;-69
2024/02/11 16:32:00;;;;;;;4.85;2.05;;;11.00;99.90;;;;;;2084327;28;20124;-69
2024/02/11 16:33:01;;;;;;;5.38;2.53;;;11.00;99.90;;;;;;2084380;28;20025;-69
2024/02/11 16:34:02;;;;;;;3.92;2.13;;;11.20;99.90;;;;;;2082009;28;20049;-69
2024/02/11 16:35:07;;;;;;;3.13;2.17;;;11.20;99.90;;;;;;2083307;28;20131;-69
2024/02/11 16:36:08;;;;;;;8.77;2.65;;;11.20;99.90;;;;;;2082938;28;20033;-69
2024/02/11 16:37:09;;;;;;;4.68;1.92;;;11.30;99.90;;;;;;2084441;28;20193;-68
2024/02/11 16:38:09;;;;;;;5.68;2.30;;;11.30;99.90;;;;;;2082826;28;20018;-69
2024/02/11 16:39:10;;;;;;;4.47;2.58;;;11.30;99.90;;;;;;2083607;28;20132;-69
2024/02/11 16:40:14;;;;;;;6.72;2.67;;;11.40;99.90;;;;;;2084319;28;20033;-68
2024/02/11 16:41:16;;;;;;;4.43;1.95;;;11.40;99.90;;;;;;2085029;28;20025;-68
2024/02/11 16:42:18;;;;;;;5.65;2.90;;;11.40;99.90;;;;;;2083685;28;20032;-69
2024/02/11 16:43:18;;;;;;;5.50;1.90;;;11.50;99.90;;;;;;2085200;28;20028;-69
2024/02/11 16:44:19;;;;;;;3.65;1.40;;;11.50;99.90;;;;;;2082388;28;20032;-69
2024/02/11 16:45:19;;;;;;;2.95;1.50;;;11.50;99.90;;;;;;2088772;28;20017;-69
2024/02/11 16:46:21;;;;;;;3.05;1.42;;;11.60;99.90;;;;;;2092806;28;20033;-69
2024/02/11 16:47:21;;;;;;;3.42;1.30;;;11.60;99.90;;;;;;2082969;28;20120;-69
2024/02/11 16:48:22;;;;;;;3.13;1.70;;;11.60;99.90;;;;;;2083161;28;20029;-69
2024/02/11 16:49:26;;;;;;;3.10;1.42;;;11.60;99.90;;;;;;2083496;28;20548;-69
2024/02/11 16:50:26;;;;;;;3.42;1.92;;;11.60;99.90;;;;;;2084507;28;20037;-69
2024/02/11 16:51:28;;;;;;;2.10;1.10;;;11.60;99.90;;;;;;2084887;28;20033;-70
2024/02/11 16:52:29;;;;;;;3.72;1.90;;;11.60;99.90;;;;;;2083461;28;20031;-69
2024/02/11 16:53:29;;;;;;;2.83;1.25;;;11.70;99.90;;;;;;2082764;28;20052;-69
2024/02/11 16:54:32;;;;;;;2.30;1.27;;;11.70;99.90;;;;;;2083140;28;20092;-69
2024/02/11 16:55:33;;;;;;;3.67;1.73;;;11.70;99.90;;;;;;2081943;28;20476;-69
2024/02/11 16:56:33;;;;;;;4.90;1.08;;;11.70;99.90;;;;;;2084764;28;20049;-69
2024/02/11 16:57:34;;;;;;;2.10;1.00;;;11.70;99.90;;;;;;2082105;28;20087;-68
2024/02/11 16:58:36;;;;;;;4.90;1.45;;;11.60;99.90;;;;;;2083669;28;20029;-69
2024/02/11 16:59:39;;;;;;;4.80;1.38;;;11.70;99.90;;;;;;2089875;28;20036;-68
2024/02/11 17:00:40;;;;;;;3.75;1.60;;;11.70;99.90;;;;;;2090509;28;20484;-69
2024/02/11 17:01:40;;;;;;;2.00;1.15;;;11.70;99.90;;;;;;2081697;28;20030;-69
2024/02/11 17:02:41;;;;;;;2.40;1.45;;;11.70;99.90;;;;;;2083100;28;20040;-69
2024/02/11 17:03:42;;;;;;;4.15;1.38;;;11.70;99.90;;;;;;2084543;28;20381;-69
2024/02/11 17:04:43;;;;;;;2.88;1.80;;;11.70;99.90;;;;;;2082030;28;20030;-68
2024/02/11 17:05:44;;;;;;;2.42;1.58;;;11.80;99.90;;;;;;2084219;28;20100;-69
2024/02/11 17:06:44;;;;;;;2.58;1.10;;;11.80;99.90;;;;;;2085256;28;20164;-69
2024/02/11 17:07:47;;;;;;;1.90;1.20;;;11.80;99.90;;;;;;2084407;28;20029;-68
2024/02/11 17:08:47;;;;;;;1.98;1.30;;;11.80;99.90;;;;;;2084143;28;20025;-69
2024/02/11 17:09:49;;;;;;;3.28;1.48;;;11.80;99.90;;;;;;2081252;28;20037;-69
2024/02/11 17:10:51;;;;;;;2.63;1.17;;;11.80;99.90;;;;;;2081880;28;20017;-69
2024/02/11 17:11:54;;;;;;;2.58;1.48;;;11.80;99.90;;;;;;2082936;28;20056;-69
2024/02/11 17:12:55;;;;;;;1.80;1.33;;;11.80;99.90;;;;;;2083155;28;20359;-70
2024/02/11 17:13:56;;;;;;;4.28;1.50;;;11.80;99.90;;;;;;2082111;28;20055;-69
2024/02/11 17:14:56;;;;;;;2.05;1.25;;;11.80;99.90;;;;;;2084380;28;20026;-69
2024/02/11 17:15:57;;;;;;;3.15;1.80;;;11.80;99.90;;;;;;2084925;28;20059;-69
2024/02/11 17:16:58;;;;;;;3.00;1.90;;;11.80;99.90;;;;;;2090715;28;20113;-69
2024/02/11 17:17:59;;;;;;;2.90;1.70;;;11.80;99.90;;;;;;2089831;28;20520;-68
2024/02/11 17:19:00;;;;;;;2.83;1.50;;;11.80;99.90;;;;;;2090984;28;20069;-68
2024/02/11 17:20:01;;;;;;;4.55;2.05;;;11.80;99.90;;;;;;2090690;28;20110;-68
2024/02/11 17:21:03;;;;;;;3.65;1.63;;;11.80;99.90;;;;;;2093119;28;20054;-69
2024/02/11 17:22:04;;;;;;;3.30;1.50;;;11.80;99.90;;;;;;2091699;28;20025;-69
2024/02/11 17:23:04;;;;;;;4.05;1.42;;;11.80;99.90;;;;;;2091777;28;20505;-69
2024/02/11 17:24:07;;;;;;;3.10;1.35;;;11.80;99.90;;;;;;2083419;28;20493;-69
2024/02/11 17:25:08;;;;;;;2.53;1.50;;;11.80;99.90;;;;;;2089916;28;20031;-73
2024/02/11 17:26:08;;;;;;;1.95;1.30;;;11.80;99.90;;;;;;2090493;28;20033;-73
2024/02/11 17:27:09;;;;;;;2.95;1.20;;;11.70;99.90;;;;;;2082969;28;20017;-73
2024/02/11 17:28:10;;;;;;;4.88;1.70;;;11.70;99.90;;;;;;2076020;28;20166;-73
2024/02/11 17:29:10;;;;;;;2.85;1.25;;;11.70;99.90;;;;;;2085920;28;20021;-73
2024/02/11 17:30:12;;;;;;;3.45;1.40;;;11.70;99.90;;;;;;2086217;28;20021;-73
2024/02/11 17:31:13;;;;;;;6.97;2.15;;;11.60;99.90;;;;;;2085940;28;20033;-73
2024/02/11 17:32:14;;;;;;;4.13;1.63;;;11.70;99.90;;;;;;2075914;28;20022;-73
2024/02/11 17:33:15;;;;;;;4.32;1.70;;;11.60;99.90;;;;;;2075929;28;20037;-73
2024/02/11 17:34:16;;;;;;;2.90;1.42;;;11.60;99.90;;;;;;2083886;28;20374;-73
2024/02/11 17:35:18;;;;;;;2.35;1.33;;;11.60;99.90;;;;;;2084168;28;20070;-73
2024/02/11 17:36:19;;;;;;;2.70;1.58;;;11.60;99.90;;;;;;2085377;28;20040;-73
2024/02/11 17:37:20;;;;;;;2.65;1.40;;;11.60;99.90;;;;;;2077181;28;20060;-73
2024/02/11 17:38:21;;;;;;;2.70;1.90;;;11.60;99.90;;;;;;2075775;28;20148;-73
2024/02/11 17:39:22;;;;;;;1.95;1.45;;;11.60;99.90;;;;;;2085287;28;20115;-73
2024/02/11 17:40:26;;;;;;;3.20;1.45;;;11.60;99.90;;;;;;2083519;28;20095;-74
2024/02/11 17:41:28;;;;;;;4.10;1.73;;;11.60;99.90;;;;;;2084917;28;20033;-73
2024/02/11 17:42:28;;;;;;;5.22;1.90;;;11.60;99.90;;;;;;2084602;28;20389;-73
2024/02/11 17:43:29;;;;;;;3.25;1.50;;;11.60;99.90;;;;;;2078667;28;20087;-73
2024/02/11 17:44:31;;;;;;;3.55;1.63;;;11.50;99.90;;;;;;2078042;28;20026;-73
2024/02/11 17:45:32;;;;;;;2.95;1.58;;;11.50;99.90;;;;;;2085501;28;20035;-73
2024/02/11 17:46:35;;;;;;;5.32;1.42;;;11.50;99.90;;;;;;2083894;28;20029;-73
2024/02/11 17:47:36;;;;;;;4.97;1.90;;;11.50;99.90;;;;;;2082748;28;20075;-74
2024/02/11 17:48:38;;;;;;;3.72;1.23;;;11.50;99.90;;;;;;2084908;28;20024;-74
2024/02/11 17:49:38;;;;;;;4.07;1.50;;;11.40;99.90;;;;;;2084030;28;20896;-74
2024/02/11 17:50:42;;;;;;;2.63;1.35;;;11.40;99.90;;;;;;2081685;28;20156;-74
2024/02/11 17:51:43;;;;;;;4.13;1.77;;;11.40;99.90;;;;;;2084765;28;20048;-73
2024/02/11 17:52:44;;;;;;;3.88;1.60;;;11.40;99.90;;;;;;2075901;28;20026;-74
2024/02/11 17:53:44;;;;;;;3.28;1.60;;;11.40;99.90;;;;;;2075660;28;20033;-73
2024/02/11 17:54:45;;;;;;;4.90;1.52;;;11.40;99.90;;;;;;2084571;28;20049;-73
2024/02/11 17:55:48;;;;;;;2.70;1.60;;;11.40;99.90;;;;;;2085915;28;20079;-73
2024/02/11 17:56:49;;;;;;;1.83;1.27;;;11.40;99.90;;;;;;2085050;28;20078;-74
2024/02/11 17:57:50;;;;;;;3.83;1.60;;;11.40;99.90;;;;;;2084168;28;20030;-73
2024/02/11 17:58:51;;;;;;;3.78;1.48;;;11.40;99.90;;;;;;2082497;28;20031;-73
2024/02/11 17:59:52;;;;;;;3.03;1.50;;;11.40;99.90;;;;;;2084770;28;20033;-73
2024/02/11 18:00:53;;;;;;;4.90;1.92;;;11.40;99.90;;;;;;2081421;28;20386;-73
2024/02/11 18:01:55;;;;;;;3.42;1.67;;;11.30;99.90;;;;;;2086047;28;20044;-73
2024/02/11 18:02:56;;;;;;;4.13;1.90;;;11.30;99.90;;;;;;2084385;28;20377;-73
2024/02/11 18:03:57;;;;;;;3.75;1.42;;;11.30;99.90;;;;;;2085243;28;20136;-74
2024/02/11 18:04:58;;;;;;;3.17;1.70;;;11.30;99.90;;;;;;2085446;28;20029;-73
2024/02/11 18:06:00;;;;;;;3.05;1.52;;;11.30;99.90;;;;;;2084553;28;20052;-73
2024/02/11 18:07:00;;;;;;;3.50;1.83;;;11.30;99.90;;;;;;2083670;28;20030;-73
2024/02/11 18:08:03;;;;;;;3.70;1.50;;;11.30;99.90;;;;;;2082701;28;20038;-74
2024/02/11 18:09:06;;;;;;;3.85;1.77;;;11.30;99.90;;;;;;2085676;28;20025;-73
2024/02/11 18:10:11;;;;;;;3.33;1.67;;;11.30;99.90;;;;;;2084118;28;20036;-74
2024/02/11 18:11:12;;;;;;;5.32;2.10;;;11.20;99.90;;;;;;2082548;28;20116;-73
2024/02/11 18:12:12;;;;;;;4.50;1.70;;;11.20;99.90;;;;;;2085338;28;20020;-73
2024/02/11 18:13:14;;;;;;;5.97;2.15;;;11.20;99.90;;;;;;2085443;28;20025;-69
2024/02/11 18:14:14;;;;;;;3.65;1.95;;;11.20;99.90;;;;;;2084272;28;20029;-69
2024/02/11 18:15:18;;;;;;;2.75;1.73;;;11.20;99.90;;;;;;2084264;28;20091;-68
2024/02/11 18:16:19;;;;;;;5.03;1.90;;;11.20;99.90;;;;;;2085442;28;20049;-68
2024/02/11 18:17:21;;;;;;;3.70;1.70;;;11.20;99.90;;;;;;2087489;28;20021;-69
2024/02/11 18:18:22;;;;;;;6.13;2.15;;;11.20;99.90;;;;;;2085096;28;20036;-69
2024/02/11 18:19:23;;;;;;;2.88;1.70;;;11.20;99.90;;;;;;2084050;28;20025;-69
2024/02/11 18:20:25;;;;;;;3.38;1.52;;;11.20;99.90;;;;;;2085023;28;20036;-69
2024/02/11 18:21:27;;;;;;;3.20;1.58;;;11.20;99.90;;;;;;2084127;28;20060;-69
2024/02/11 18:22:28;;;;;;;3.88;1.70;;;11.20;99.90;;;;;;2085358;28;20485;-69
2024/02/11 18:23:30;;;;;;;2.70;2.00;;;11.20;99.90;;;;;;2082823;28;20481;-68
2024/02/11 18:24:31;;;;;;;3.72;1.75;;;11.20;99.90;;;;;;2076246;28;20565;-70
2024/02/11 18:25:32;;;;;;;3.28;1.77;;;11.20;99.90;;;;;;2076366;28;20575;-69
2024/02/11 18:26:32;;;;;;;5.00;1.45;;;11.20;99.90;;;;;;2083445;28;20068;-69
2024/02/11 18:27:34;;;;;;;3.78;1.50;;;11.20;99.90;;;;;;2077973;28;20033;-69
2024/02/11 18:28:36;;;;;;;2.33;1.55;;;11.10;99.90;;;;;;2077364;28;20445;-69
2024/02/11 18:29:40;;;;;;;2.97;1.52;;;11.10;99.90;;;;;;2083437;28;20239;-69
2024/02/11 18:30:40;;;;;;;5.10;2.10;;;11.10;99.90;;;;;;2085693;28;20091;-69
2024/02/11 18:31:42;;;;;;;3.47;1.48;;;11.10;99.90;;;;;;2085011;28;20489;-70
2024/02/11 18:32:43;;;;;;;3.72;1.85;;;11.10;99.90;;;;;;2085660;28;20025;-69
2024/02/11 18:33:44;;;;;;;5.15;1.67;;;11.10;99.90;;;;;;2083760;28;20025;-69
2024/02/11 18:34:47;;;;;;;4.50;1.50;;;11.00;99.90;;;;;;2084796;28;20527;-69
2024/02/11 18:35:48;;;;;;;3.17;1.30;;;11.00;99.90;;;;;;2086282;28;20337;-69
2024/02/11 18:36:48;;;;;;;5.40;1.92;;;11.00;99.90;;;;;;2085363;28;20022;-68
2024/02/11 18:37:49;;;;;;;3.20;1.48;;;11.00;99.90;;;;;;2083488;28;20040;-69
2024/02/11 18:38:50;;;;;;;2.45;1.40;;;11.00;99.90;;;;;;2082493;28;20098;-69
2024/02/11 18:39:51;;;;;;;2.28;1.45;;;10.90;99.90;;;;;;2082989;28;20020;-69
2024/02/11 18:40:51;;;;;;;4.38;2.00;;;10.90;99.90;;;;;;2083305;28;20025;-70
2024/02/11 18:41:52;;;;;;;3.35;1.70;;;10.90;99.90;;;;;;2086026;28;20063;-68
2024/02/11 18:42:53;;;;;;;3.00;1.45;;;10.80;99.90;;;;;;2083176;28;20035;-68
2024/02/11 18:43:54;;;;;;;3.85;1.80;;;10.80;99.90;;;;;;2083939;28;20029;-69
2024/02/11 18:44:54;;;;;;;2.22;1.55;;;10.80;99.90;;;;;;2084602;28;20462;-69
2024/02/11 18:45:55;;;;;;;2.97;1.60;;;10.80;99.90;;;;;;2084240;28;20037;-69
2024/02/11 18:46:56;;;;;;;4.88;1.63;;;10.80;99.90;;;;;;2085038;28;20029;-68
2024/02/11 18:47:56;;;;;;;5.30;1.77;;;10.80;99.90;;;;;;2083159;28;20022;-69
2024/02/11 18:48:57;;;;;;;6.15;1.98;;;10.70;99.90;;;;;;2084626;28;20030;-70
2024/02/11 18:49:58;;;;;;;2.78;1.85;;;10.70;99.90;;;;;;2084365;28;20033;-69
2024/02/11 18:50:58;;;;;;;4.53;2.00;;;10.70;99.90;;;;;;2085602;28;20070;-69
2024/02/11 18:52:00;;;;;;;6.45;2.03;;;10.70;99.90;;;;;;2086030;28;20029;-69
2024/02/11 18:53:01;;;;;;;2.67;1.80;;;10.60;99.90;;;;;;2084830;28;20037;-68
2024/02/11 18:54:07;;;;;;;4.70;2.28;;;10.60;99.90;;;;;;2083103;28;20442;-69
2024/02/11 18:55:08;;;;;;;3.85;1.75;;;10.60;99.90;;;;;;2083453;28;20029;-68
2024/02/11 18:56:09;;;;;;;4.95;2.22;;;10.60;99.90;;;;;;2083926;28;20120;-69
2024/02/11 18:57:15;;;;;;;4.70;2.03;;;10.60;99.90;;;;;;2085077;28;20024;-68
2024/02/11 18:58:15;;;;;;;2.92;1.95;;;10.60;99.90;;;;;;2082195;28;20029;-69
2024/02/11 18:59:16;;;;;;;2.83;1.88;;;10.60;99.90;;;;;;2083266;28;20117;-68
2024/02/11 19:00:18;;;;;;;3.05;2.10;;;10.50;99.90;;;;;;2083269;28;20542;-69
2024/02/11 19:01:18;;;;;;;3.45;1.90;;;10.50;99.90;;;;;;2084201;28;20031;-69
2024/02/11 19:02:19;;;;;;;3.28;2.00;;;10.50;99.90;;;;;;2084829;28;20021;-68
2024/02/11 19:03:19;;;;;;;4.50;2.22;;;10.40;99.90;;;;;;2083583;28;20098;-69
2024/02/11 19:04:20;;;;;;;3.55;2.38;;;10.40;99.90;;;;;;2082959;28;20473;-69
2024/02/11 19:05:20;;;;;;;5.85;2.33;;;10.40;99.90;;;;;;2086637;28;20050;-69
2024/02/11 19:06:22;;;;;;;5.40;2.60;;;10.40;99.90;;;;;;2083469;28;20060;-68
2024/02/11 19:07:23;;;;;;;3.65;2.10;;;10.40;99.90;;;;;;2083568;28;20099;-69
2024/02/11 19:08:24;;;;;;;5.00;2.50;;;10.40;99.90;;;;;;2084123;28;20111;-70
2024/02/11 19:09:24;;;;;;;6.03;2.40;;;10.30;99.90;;;;;;2084333;28;20017;-69
2024/02/11 19:10:26;;;;;;;3.10;1.67;;;10.30;99.90;;;;;;2082353;28;20036;-69
2024/02/11 19:11:26;;;;;;;5.03;2.00;;;10.30;99.90;;;;;;2083431;28;20036;-69
2024/02/11 19:12:31;;;;;;;2.83;1.50;;;10.20;99.90;;;;;;2082602;28;20113;-70
2024/02/11 19:13:32;;;;;;;4.50;2.30;;;10.30;99.90;;;;;;2074774;28;20079;-69
2024/02/11 19:14:33;;;;;;;3.72;2.00;;;10.20;99.90;;;;;;2075436;28;20092;-69
2024/02/11 19:15:34;;;;;;;5.00;2.22;;;10.20;99.90;;;;;;2081188;28;20031;-69
2024/02/11 19:16:34;;;;;;;3.15;1.77;;;10.20;99.90;;;;;;2073694;28;20108;-69
2024/02/11 19:17:35;;;;;;;3.25;2.08;;;10.10;99.90;;;;;;2072948;28;20030;-69
2024/02/11 19:18:37;;;;;;;4.43;2.08;;;10.10;99.90;;;;;;2077041;28;20033;-70
2024/02/11 19:19:37;;;;;;;4.68;2.47;;;10.10;99.90;;;;;;2076425;28;20058;-69
2024/02/11 19:20:39;;;;;;;5.25;2.60;;;10.10;99.90;;;;;;2075337;28;20025;-69
2024/02/11 19:21:42;;;;;;;4.32;2.10;;;10.00;99.90;;;;;;2074529;28;20049;-69
2024/02/11 19:22:45;;;;;;;3.95;2.20;;;10.00;99.90;;;;;;2076279;28;20022;-69
2024/02/11 19:23:46;;;;;;;5.80;2.72;;;10.10;99.90;;;;;;2074842;28;20361;-69
2024/02/11 19:24:47;;;;;;;3.70;2.25;;;10.00;99.90;;;;;;2075550;28;20030;-68
2024/02/11 19:25:52;;;;;;;5.82;2.70;;;10.00;99.90;;;;;;2076648;28;20099;-68
2024/02/11 19:26:52;;;;;;;3.78;2.25;;;10.00;99.90;;;;;;2075179;28;20034;-69
2024/02/11 19:27:53;;;;;;;3.05;2.35;;;10.00;99.90;;;;;;2074165;28;20030;-69
2024/02/11 19:28:53;;;;;;;4.80;2.40;;;10.00;99.90;;;;;;2075407;28;20060;-69
2024/02/11 19:29:55;;;;;;;5.32;2.40;;;9.90;99.90;;;;;;2075423;28;20029;-69
2024/02/11 19:30:57;;;;;;;6.60;2.50;;;10.00;99.90;;;;;;2074576;28;20096;-68
2024/02/11 19:31:58;;;;;;;3.60;2.60;;;9.90;99.90;;;;;;2078435;28;20030;-69
2024/02/11 19:33:00;;;;;;;7.88;2.38;;;9.90;99.90;;;;;;2070152;28;20652;-68
2024/02/11 19:34:01;;;;;;;4.30;2.72;;;9.90;99.90;;;;;;2077871;28;20117;-69
2024/02/11 19:35:02;;;;;;;7.47;2.47;;;9.90;99.90;;;;;;2082980;28;20389;-70
2024/02/11 19:36:03;;;;;;;5.05;2.40;;;9.90;99.90;;;;;;2082757;28;20032;-68
2024/02/11 19:37:06;;;;;;;6.63;2.70;;;9.90;99.90;;;;;;2076498;28;20022;-69
2024/02/11 19:38:07;;;;;;;4.80;2.60;;;9.90;99.90;;;;;;2076002;28;20038;-68
2024/02/11 19:39:09;;;;;;;5.38;2.50;;;9.90;99.90;;;;;;2075054;28;20030;-69
2024/02/11 19:40:10;;;;;;;5.18;3.00;;;9.90;99.90;;;;;;2075650;28;20057;-69
2024/02/11 19:41:11;;;;;;;4.95;2.85;;;9.90;99.90;;;;;;2074632;28;20017;-68
2024/02/11 19:42:13;;;;;;;7.70;2.90;;;9.90;99.90;;;;;;2076648;28;20041;-68
2024/02/11 19:43:14;;;;;;;4.03;2.97;;;9.90;99.90;;;;;;2074744;28;20389;-69
2024/02/11 19:44:14;;;;;;;4.13;2.85;;;9.90;99.90;;;;;;2076056;28;20072;-69
2024/02/11 19:45:15;;;;;;;4.97;3.05;;;9.90;99.90;;;;;;2074448;28;20092;-69
2024/02/11 19:46:16;;;;;;;3.60;2.85;;;9.90;99.90;;;;;;2074294;28;20034;-69
2024/02/11 19:47:16;;;;;;;4.32;2.92;;;9.90;99.90;;;;;;2074003;28;20021;-69
2024/02/11 19:48:17;;;;;;;5.88;3.10;;;9.90;99.90;;;;;;2075989;28;20028;-69
2024/02/11 19:49:18;;;;;;;5.78;3.40;;;9.90;99.90;;;;;;2072802;28;20144;-68
2024/02/11 19:50:19;;;;;;;4.47;2.63;;;9.90;99.90;;;;;;2077873;28;20088;-70
2024/02/11 19:51:19;;;;;;;3.30;2.50;;;9.90;99.90;;;;;;2071411;28;20030;-70
2024/02/11 19:52:20;;;;;;;3.45;2.97;;;9.90;99.90;;;;;;2073556;28;20083;-69
2024/02/11 19:53:20;;;;;;;6.13;3.20;;;10.00;99.90;;;;;;2075480;28;20556;-69
2024/02/11 19:54:21;;;;;;;6.18;3.05;;;10.00;99.90;;;;;;2074866;28;20029;-68
2024/02/11 19:55:22;;;;;;;6.25;2.88;;;9.90;99.90;;;;;;2074224;28;20104;-69
2024/02/11 19:56:22;;;;;;;5.80;3.38;;;9.90;99.90;;;;;;2080265;28;20431;-69
2024/02/11 19:57:23;;;;;;;5.85;3.45;;;10.00;99.90;;;;;;2074793;28;20401;-69
2024/02/11 19:58:24;;;;;;;4.13;2.65;;;10.00;99.90;;;;;;2073865;28;20132;-69
2024/02/11 19:59:25;;;;;;;5.63;3.13;;;10.00;99.90;;;;;;2074780;28;20659;-69
2024/02/11 20:00:26;;;;;;;7.32;3.33;;;10.00;99.90;;;;;;2074335;28;20031;-69
2024/02/11 20:01:27;;;;;;;7.38;3.15;;;9.90;99.90;;;;;;2075656;28;20083;-69
2024/02/11 20:02:28;;;;;;;4.82;2.67;;;10.00;99.90;;;;;;2074530;28;20387;-70
2024/02/11 20:03:29;;;;;;;5.60;3.00;;;10.00;99.90;;;;;;2075335;28;20038;-69
2024/02/11 20:04:30;;;;;;;6.10;3.10;;;10.00;99.90;;;;;;2073334;28;20029;-69
2024/02/11 20:05:31;;;;;;;4.93;3.10;;;10.00;99.90;;;;;;2075317;28;20139;-70
2024/02/11 20:06:31;;;;;;;5.30;3.30;;;10.00;99.90;;;;;;2074955;28;20026;-70
2024/02/11 20:07:32;;;;;;;3.78;2.58;;;9.90;99.90;;;;;;2073927;28;20498;-69
2024/02/11 20:08:34;;;;;;;5.70;2.67;;;9.90;99.90;;;;;;2075214;28;20036;-70
2024/02/11 20:09:38;;;;;;;6.90;3.05;;;9.90;99.90;;;;;;2074761;28;20026;-69
2024/02/11 20:10:40;;;;;;;7.60;3.85;;;9.90;99.90;;;;;;2072820;28;20026;-69
2024/02/11 20:11:45;;;;;;;6.32;3.08;;;9.90;99.90;;;;;;2074184;28;20073;-69
2024/02/11 20:12:47;;;;;;;3.97;2.78;;;9.90;99.90;;;;;;2074144;28;20029;-69
2024/02/11 20:13:48;;;;;;;6.63;3.38;;;9.90;99.90;;;;;;2075350;28;20033;-69
2024/02/11 20:14:50;;;;;;;7.05;3.20;;;9.90;99.90;;;;;;2073798;28;20034;-68
2024/02/11 20:15:52;;;;;;;6.20;3.17;;;10.00;99.90;;;;;;2077402;28;20525;-68
2024/02/11 20:16:52;;;;;;;5.22;2.80;;;10.00;99.90;;;;;;2080587;28;20041;-70
2024/02/11 20:17:54;;;;;;;3.72;2.78;;;9.90;99.90;;;;;;2082670;28;20029;-69
2024/02/11 20:18:54;;;;;;;7.03;2.97;;;9.90;99.90;;;;;;2082351;28;20049;-70
2024/02/11 20:19:55;;;;;;;5.80;3.45;;;9.90;99.90;;;;;;2083792;28;20370;-69
2024/02/11 20:20:57;;;;;;;5.75;3.28;;;9.90;99.90;;;;;;2082187;28;20557;-69
2024/02/11 20:21:57;;;;;;;5.25;3.03;;;9.90;99.90;;;;;;2081632;28;20076;-69
2024/02/11 20:22:58;;;;;;;3.08;2.72;;;9.90;99.90;;;;;;2082799;28;20473;-69
2024/02/11 20:23:58;;;;;;;4.47;2.83;;;9.90;99.90;;;;;;2082428;28;20045;-69
2024/02/11 20:24:59;;;;;;;5.03;3.38;;;9.90;99.90;;;;;;2081830;28;20141;-69
2024/02/11 20:25:59;;;;;;;4.38;3.03;;;9.90;99.90;;;;;;2084134;28;20033;-68
2024/02/11 20:27:00;;;;;;;3.38;2.90;;;9.90;99.90;;;;;;2081928;28;20135;-69
2024/02/11 20:28:08;;;;;;;4.28;3.28;;;9.90;99.90;;;;;;2081750;28;20083;-69
2024/02/11 20:29:09;;;;;;;6.40;3.10;;;9.90;99.90;;;;;;2084072;28;20033;-68
2024/02/11 20:30:10;;;;;;;4.60;3.22;;;9.90;99.90;;;;;;2085055;28;20049;-69
2024/02/11 20:31:11;;;;;;;4.38;2.50;;;9.80;99.90;;;;;;2081593;28;20497;-68
2024/02/11 20:32:12;;;;;;;3.60;2.80;;;9.90;99.90;;;;;;2075067;28;20025;-69
2024/02/11 20:33:13;;;;;;;9.05;3.13;;;9.80;99.90;;;;;;2074818;28;20033;-68
2024/02/11 20:34:15;;;;;;;5.03;3.47;;;9.80;99.90;;;;;;2082047;28;20021;-70
2024/02/11 20:35:15;;;;;;;5.28;2.70;;;9.80;99.90;;;;;;2083583;28;20029;-69
2024/02/11 20:36:18;;;;;;;5.30;2.90;;;9.80;99.90;;;;;;2081598;28;20037;-69
2024/02/11 20:37:20;;;;;;;6.28;3.35;;;9.80;99.90;;;;;;2082004;28;20044;-69
2024/02/11 20:38:21;;;;;;;6.45;3.05;;;9.80;99.90;;;;;;2084506;28;20029;-70
2024/02/11 20:39:22;;;;;;;5.13;3.25;;;9.80;99.90;;;;;;2082564;28;20044;-69
2024/02/11 20:40:23;;;;;;;4.78;2.97;;;9.80;99.90;;;;;;2084049;28;20116;-69
2024/02/11 20:41:26;;;;;;;4.28;3.17;;;9.80;99.90;;;;;;2081946;28;20464;-68
2024/02/11 20:42:27;;;;;;;6.55;3.00;;;9.80;99.90;;;;;;2081223;28;20473;-69
2024/02/11 20:43:28;;;;;;;6.47;3.60;;;9.80;99.90;;;;;;2081292;28;20059;-69
2024/02/11 20:44:29;;;;;;;5.85;2.92;;;9.80;99.90;;;;;;2085507;28;20036;-69
2024/02/11 20:45:29;;;;;;;5.10;3.00;;;9.80;99.90;;;;;;2081061;28;20029;-69
2024/02/11 20:46:30;;;;;;;4.53;3.03;;;9.80;99.90;;;;;;2084093;28;20032;-69
2024/02/11 20:47:30;;;;;;;5.75;3.00;;;9.80;99.90;;;;;;2083125;28;20032;-68
2024/02/11 20:48:31;;;;;;;5.75;3.10;;;9.70;99.90;;;;;;2065885;28;20033;-68
2024/02/11 20:49:32;;;;;;;6.78;2.85;;;9.80;99.90;;;;;;2066033;28;20042;-68
2024/02/11 20:50:33;;;;;;;4.63;2.88;;;9.80;99.90;;;;;;2081819;28;20017;-69
2024/02/11 20:51:35;;;;;;;5.40;2.42;;;9.70;99.90;;;;;;2082268;28;20029;-69
2024/02/11 20:52:36;;;;;;;4.32;2.90;;;9.70;99.90;;;;;;2081355;28;20064;-69
2024/02/11 20:53:37;;;;;;;5.90;2.80;;;9.70;99.90;;;;;;2082566;28;20021;-69
2024/02/11 20:54:39;;;;;;;4.28;2.58;;;9.80;99.90;;;;;;2081321;28;20062;-68
2024/02/11 20:55:40;;;;;;;5.70;2.70;;;9.80;99.90;;;;;;2082625;28;20071;-68
2024/02/11 20:56:41;;;;;;;5.72;3.40;;;9.70;99.90;;;;;;2084755;28;20033;-69
2024/02/11 20:57:42;;;;;;;3.40;2.78;;;9.80;99.90;;;;;;2085537;28;20428;-68
2024/02/11 20:58:43;;;;;;;4.35;2.75;;;9.70;99.90;;;;;;2083475;28;20147;-69
2024/02/11 20:59:44;;;;;;;5.72;2.95;;;9.80;99.90;;;;;;2082842;28;20025;-69
2024/02/11 21:00:45;;;;;;;5.20;2.92;;;9.80;99.90;;;;;;2083290;28;20025;-69
2024/02/11 21:01:46;;;;;;;5.53;3.00;;;9.80;99.90;;;;;;2083211;28;20033;-70
2024/02/11 21:02:51;;;;;;;7.22;3.08;;;9.80;99.90;;;;;;2083608;28;20079;-69
2024/02/11 21:03:55;;;;;;;5.63;2.80;;;9.80;99.90;;;;;;2084820;28;20358;-69
2024/02/11 21:04:56;;;;;;;4.35;2.70;;;9.70;99.90;;;;;;2083882;28;20064;-69
2024/02/11 21:05:59;;;;;;;5.15;2.85;;;9.80;99.90;;;;;;2084677;28;20036;-68
2024/02/11 21:07:00;;;;;;;5.45;3.00;;;9.80;99.90;;;;;;2086529;28;20021;-69
2024/02/11 21:08:02;;;;;;;6.43;2.80;;;9.80;99.90;;;;;;2083838;28;20136;-68
2024/02/11 21:09:05;;;;;;;4.63;2.75;;;9.80;99.90;;;;;;2080952;28;20021;-69
2024/02/11 21:10:11;;;;;;;8.20;3.10;;;9.80;99.90;;;;;;2085491;28;20017;-69
2024/02/11 21:11:12;;;;;;;6.22;2.78;;;9.80;99.90;;;;;;2084340;28;20466;-69
2024/02/11 21:12:12;;;;;;;4.93;3.42;;;9.80;99.90;;;;;;2084842;28;20037;-69
2024/02/11 21:13:15;;;;;;;5.57;2.70;;;9.80;99.90;;;;;;2084358;28;20033;-70
2024/02/11 21:14:16;;;;;;;3.65;2.70;;;9.80;99.90;;;;;;2083652;28;20107;-69
2024/02/11 21:15:16;;;;;;;5.85;2.78;;;9.80;99.90;;;;;;2075930;28;20879;-69
2024/02/11 21:16:17;;;;;;;4.72;2.80;;;9.80;99.90;;;;;;2077778;28;20505;-69
2024/02/11 21:17:18;;;;;;;4.32;2.83;;;9.90;99.90;;;;;;2084415;28;20553;-69
2024/02/11 21:18:21;;;;;;;6.38;2.88;;;9.90;99.90;;;;;;2086229;28;20390;-69
2024/02/11 21:19:22;;;;;;;5.03;2.78;;;9.90;99.90;;;;;;2085254;28;20181;-68
2024/02/11 21:20:28;;;;;;;6.95;2.95;;;9.90;99.90;;;;;;2084133;28;20120;-69
2024/02/11 21:21:28;;;;;;;5.80;2.75;;;9.90;99.90;;;;;;2084575;28;20083;-69
2024/02/11 21:22:30;;;;;;;3.75;2.78;;;9.90;99.90;;;;;;2085788;28;20362;-69
2024/02/11 21:23:31;;;;;;;4.80;2.67;;;9.90;99.90;;;;;;2084790;28;20043;-68
2024/02/11 21:24:32;;;;;;;4.55;3.15;;;9.90;99.90;;;;;;2084971;28;20385;-69
2024/02/11 21:25:32;;;;;;;7.07;2.78;;;9.90;99.90;;;;;;2085818;28;20022;-69
2024/02/11 21:26:34;;;;;;;5.05;2.78;;;9.90;99.90;;;;;;2084407;28;20116;-69
2024/02/11 21:27:37;;;;;;;6.47;3.03;;;9.90;99.90;;;;;;2085020;28;20478;-69
2024/02/11 21:28:37;;;;;;;3.97;3.33;;;9.90;99.90;;;;;;2084551;28;20124;-69
2024/02/11 21:29:38;;;;;;;4.80;2.75;;;9.90;99.90;;;;;;2085172;28;20040;-68
2024/02/11 21:30:38;;;;;;;6.43;3.40;;;9.90;99.90;;;;;;2086024;28;20107;-68
2024/02/11 21:31:39;;;;;;;5.68;3.00;;;9.90;99.90;;;;;;2084962;28;20021;-69
2024/02/11 21:32:40;;;;;;;3.53;2.63;;;10.00;99.90;;;;;;2083805;28;20021;-69
2024/02/11 21:33:41;;;;;;;5.97;2.95;;;10.00;99.90;;;;;;2087898;28;20025;-68
2024/02/11 21:34:46;;;;;;;4.93;3.17;;;10.00;99.90;;;;;;2082521;28;20063;-68
2024/02/11 21:35:47;;;;;;;5.00;3.33;;;10.00;99.90;;;;;;2082838;28;20176;-69
2024/02/11 21:36:48;;;;;;;5.28;3.03;;;10.00;99.90;;;;;;2085002;28;20041;-69